x

New York Harbor Entrance - 15 Nm Se Of Breezy Point , Ny (44065) Wave Buoy

11:50am - Mon 20th Nov 2017 All times are EST. -5 hours from GMT.

  • Sig Wave height 3.3ft
  • Swell Direction
  • Peak Period 4s
  • Average Period 4s
  • Wind
    22mph, 29mph gusts
  • Sea Temp 57°f
  • Air Temp 44°f
  • Sea Pressure 1016.7mb
  • New York Harbor Entrance - 15 Nm Se Of Breezy Point , Ny
  • New York Harbor Entrance - 15 Nm Se Of Breezy Point , Ny

More Historic Weather Station data

Upgrade to MSW Pro to gain access to the past 30 days of data for over 8000 Wavebouys and Weather Stations around the globe.

Join

Comparision Forecast

View Surf forecast
   
Mon 11/20 11:50am 3.5ft 4s 4s 22 29 mph 1016.7mb 57f 44f
10:50am 3.5ft 4s 4s 22 29 mph 1017.2mb 57f 43f
9:50am 4ft 4s 4s 25 34 mph 1017.1mb 57f 42f
8:50am 4ft 4s 4s 27 31 mph 1016.6mb 57f 42f
7:50am 4ft 4s 4s 27 36 mph 1015.7mb 57f 41f
6:50am 3.5ft 4s 4s 27 34 mph 1014.9mb 56f 41f
5:50am 4ft 5s 4s 27 31 mph 1013.8mb 57f 42f
4:50am 4.5ft 5s 4s 27 36 mph 1012.8mb 57f 42f
3:50am 4.5ft 5s 4s 29 36 mph 1011.7mb 57f 43f
2:50am 4ft 4s 4s 29 36 mph 1010.9mb 57f 42f
1:50am 3.5ft 10s 4s 29 36 mph 1009.8mb 57f 44f
12:50am 4.5ft 5s 4s 25 29 mph 1009.1mb 57f 44f
Sun 11/19 11:50pm 4.5ft 4s 4s 29 36 mph 1008.2mb 57f 45f
10:50pm 4ft 10s 4s 29 36 mph 1007.4mb 57f 46f
9:50pm 4.5ft 10s 4s 25 31 mph 1006.9mb 57f 47f
8:50pm 3.5ft 4s 4s 29 36 mph 1005.8mb 58f 48f
7:50pm 3.5ft 10s 5s 25 31 mph 1005.2mb 58f 49f
6:50pm 3.5ft 10s 5s 18 25 mph 1004.7mb 58f 49f
5:50pm 4.5ft 9s 5s 22 29 mph 1003.6mb 57f 50f
4:50pm 4.5ft 5s 5s 25 31 mph 1002.2mb 57f 49f
3:50pm 4.5ft 5s 5s 27 34 mph 1000.9mb 58f 51f
2:50pm 5.5ft 5s 5s 31 38 mph 999.1mb 58f 52f
1:50pm 6ft 5s 5s 34 40 mph 998.4mb 58f 52f
12:50pm 6.5ft 5s 5s 34 43 mph 997.4mb 58f 52f
11:50am 7ft 9s 5s 34 43 mph 996.6mb 58f 52f
10:50am 8ft 5s 5s 36 45 mph 995.1mb 58f 52f
9:50am 9ft 6s 6s 36 45 mph 993.7mb 59f 53f
8:50am 8ft 9s 6s 40 47 mph 991.6mb 59f 54f
7:50am 7.5ft 9s 6s 29 36 mph 989.5mb 59f 60f
6:50am 7.5ft 9s 6s 22 27 mph 989.5mb 59f 59f
5:50am 8ft 9s 6s 25 29 mph 989.7mb 59f 58f
4:50am 8.5ft 7s 6s 27 34 mph 990.5mb 59f 58f
3:50am 9ft 7s 6s 27 34 mph 991.5mb 59f 59f
2:50am 9ft 8s 6s 31 40 mph 992.2mb 59f 60f
1:50am 9ft 8s 6s 31 40 mph 993mb 59f 60f
12:50am 9ft 8s 6s 31 38 mph 994.1mb 59f 60f
Sat 11/18 11:50pm 7.5ft 7s 6s 31 38 mph 995.1mb 59f 60f
10:50pm 6ft 6s 5s 31 40 mph 996.3mb 59f 60f
9:50pm 6ft 8s 5s 27 34 mph 998.5mb 59f 59f
8:50pm 6ft 8s 6s 22 27 mph 1000mb 58f 58f
7:50pm 6.5ft 7s 5s 16 20 mph 1001.5mb 58f 54f
6:50pm 6.5ft 7s 5s 27 31 mph 1002mb 58f 57f
5:50pm 6ft 7s 5s 27 31 mph 1002.7mb 58f 58f
4:50pm 6ft 6s 5s 27 31 mph 1002.8mb 58f 57f
3:50pm 5ft 6s 5s 29 36 mph 1003.5mb 58f 57f
2:50pm 4.5ft 5s 4s 29 34 mph 1004.2mb 58f 55f
1:50pm 4.5ft 5s 4s 27 34 mph 1006.3mb 58f 54f
12:50pm 3.5ft 5s 4s 25 31 mph 1007.9mb 57f 54f
11:50am 2.5ft 4s 4s 20 25 mph 1010.1mb 57f 53f
10:50am 2.5ft 4s 4s 20 25 mph 1011.7mb 57f 51f
9:50am 2.5ft 4s 4s 20 22 mph 1012.4mb 57f 51f
8:50am 2ft 3s 3s 20 25 mph 1013.4mb 57f 50f
7:50am 1.6ft 11s 3s 18 22 mph 1014.3mb 57f 49f
6:50am 1ft 11s 6s 13 18 mph 1014.9mb 57f 48f
5:50am 1ft 11s 8s 9 13 mph 1015.5mb 56f 46f
4:50am 1ft 10s 6s 7 9 mph 1015.9mb 56f 46f
3:50am 1ft 11s 5s 4 7 mph 1016mb 57f 45f
2:50am 1.3ft 11s 4s 9 13 mph 1016.7mb 57f 44f
1:50am 1.6ft 3s 3s 9 13 mph 1017.1mb 57f 44f
12:50am 2ft 3s 3s 13 20 mph 1017.1mb 57f 44f
Fri 11/17 11:50pm 2ft 3s 3s 16 20 mph 1017.6mb 57f 45f
10:50pm 2ft 11s 3s 18 20 mph 1017.7mb 57f 45f
9:50pm 2.5ft 4s 4s 13 16 mph 1018mb 57f 45f
8:50pm 2.5ft 4s 4s 16 22 mph 1017.9mb 57f 46f
7:50pm 3ft 4s 4s 22 29 mph 1017.4mb 57f 47f
6:50pm 3ft 4s 4s 20 25 mph 1017.6mb 57f 48f
5:50pm 3ft 4s 4s 22 27 mph 1017.4mb 57f 49f
4:50pm 3.5ft 4s 4s 20 22 mph 1017.2mb 57f 49f
3:50pm 3.5ft 4s 4s 29 34 mph 1016.3mb 57f 49f
2:50pm 3.5ft 4s 4s 27 36 mph 1016.4mb 57f 49f
1:50pm 3ft 4s 4s 22 29 mph 1017mb 57f 47f
12:50pm 3.5ft 4s 4s 27 34 mph 1016.6mb 57f 46f
11:50am 3.5ft 4s 4s 25 29 mph 1017mb 57f 44f
10:50am 3.5ft 5s 4s 27 31 mph 1017.3mb 57f 44f
9:50am 4ft 5s 4s 27 36 mph 1017.6mb 57f 43f
8:50am 4.5ft 5s 4s 34 38 mph 1016.5mb 57f 43f
7:50am 4.5ft 6s 4s 29 36 mph 1016.1mb 57f 43f
6:50am 4.5ft 5s 4s 29 36 mph 1015.2mb 57f 44f
5:50am 4.5ft 5s 4s 31 38 mph 1014.6mb 57f 46f
4:50am 4.5ft 5s 4s 34 45 mph 1013.8mb 57f 46f
3:50am 4.5ft 5s 4s 29 38 mph 1013.3mb 57f 46f
2:50am 3.5ft 4s 4s 27 34 mph 1012.7mb 57f 47f
1:50am 4ft 4s 4s 27 34 mph 1012.4mb 57f 48f
12:50am 4ft 4s 4s 27 31 mph 1011.9mb 57f 48f
Thu 11/16 11:50pm 4ft 4s 4s 27 34 mph 1011.6mb 57f 48f
10:50pm 4.5ft 4s 4s 27 34 mph 1011.3mb 57f 49f
9:50pm 4.5ft 5s 4s 31 40 mph 1010.7mb 57f 49f
8:50pm 5ft 5s 4s 34 40 mph 1010.4mb 58f 50f
7:50pm 4.5ft 4s 4s 31 38 mph 1010.1mb 58f 51f
6:50pm 4ft 4s 4s 27 34 mph 1010mb 58f 52f